createdAt,value
2023-01-30T00:00:53.026Z,96123.00
2023-01-30T00:06:21.680Z,96123.00
2023-01-30T00:11:50.464Z,96108.00
2023-01-30T00:17:19.405Z,96106.00
2023-01-30T00:23:00.088Z,96104.00
2023-01-30T00:28:28.748Z,96096.00
2023-01-30T00:33:56.552Z,96085.00
2023-01-30T00:39:24.751Z,96090.00
2023-01-30T00:45:11.046Z,96077.00
2023-01-30T00:50:45.073Z,96064.00
2023-01-30T00:56:13.201Z,96056.00
2023-01-30T01:01:41.240Z,96048.00
2023-01-30T01:07:14.072Z,96052.00
2023-01-30T01:12:44.731Z,96034.00
2023-01-30T01:18:12.689Z,96026.00
2023-01-30T01:23:40.727Z,96021.00
2023-01-30T01:29:13.606Z,96018.00
2023-01-30T01:34:41.372Z,96015.00
2023-01-30T01:40:37.975Z,96027.00
2023-01-30T01:46:14.210Z,96012.00
2023-01-30T01:52:11.901Z,96014.00
2023-01-30T01:57:53.890Z,95991.00
2023-01-30T02:03:25.976Z,95998.00
2023-01-30T02:09:04.395Z,96005.00
2023-01-30T02:14:34.566Z,96013.00
2023-01-30T02:20:47.243Z,96018.00
2023-01-30T02:26:42.536Z,96021.00
2023-01-30T02:32:41.272Z,96018.00
2023-01-30T02:38:33.479Z,96004.00
2023-01-30T02:44:24.374Z,96007.00
2023-01-30T02:50:01.230Z,96017.00
2023-01-30T02:55:29.856Z,96024.00
2023-01-30T03:01:32.714Z,96023.00
2023-01-30T03:07:35.198Z,96033.00
2023-01-30T03:13:16.571Z,96038.00
2023-01-30T03:18:46.433Z,96048.00
2023-01-30T03:24:17.971Z,96016.00
2023-01-30T03:29:46.054Z,95999.00
2023-01-30T03:35:17.771Z,95999.00
2023-01-30T03:40:46.155Z,96003.00
2023-01-30T03:46:14.361Z,95984.00
2023-01-30T03:51:42.716Z,95989.00
2023-01-30T03:57:10.528Z,95980.00
2023-01-30T04:02:38.834Z,95973.00
2023-01-30T04:08:06.756Z,95979.00
2023-01-30T04:13:35.963Z,95966.00
2023-01-30T04:19:04.061Z,96005.00
2023-01-30T04:24:33.695Z,95994.00
2023-01-30T04:30:01.720Z,95980.00
2023-01-30T04:35:29.704Z,95988.00
2023-01-30T04:40:59.096Z,95983.00
2023-01-30T04:46:30.494Z,95992.00
2023-01-30T04:51:58.561Z,95955.00
2023-01-30T04:57:26.444Z,95949.00
2023-01-30T05:02:58.875Z,95950.00
2023-01-30T05:08:26.832Z,95945.00
2023-01-30T05:13:55.744Z,95952.00
2023-01-30T05:19:23.561Z,95924.00
2023-01-30T05:24:51.720Z,95899.00
2023-01-30T05:30:40.383Z,95921.00
2023-01-30T05:36:34.685Z,95909.00
2023-01-30T05:42:05.574Z,95910.00
2023-01-30T05:47:33.711Z,95914.00
2023-01-30T05:53:01.575Z,95910.00
2023-01-30T05:58:30.664Z,95903.00
2023-01-30T06:03:59.421Z,95895.00
2023-01-30T06:09:27.259Z,95909.00
2023-01-30T06:14:55.087Z,95902.00
2023-01-30T06:20:22.972Z,95896.00
2023-01-30T06:25:52.148Z,95890.00
2023-01-30T06:31:21.368Z,95892.00
2023-01-30T06:37:08.890Z,95883.00
2023-01-30T06:42:46.230Z,95895.00
2023-01-30T06:48:18.329Z,95916.00
2023-01-30T06:53:46.237Z,95906.00
2023-01-30T06:59:14.054Z,95921.00
2023-01-30T07:04:45.015Z,95921.00
2023-01-30T07:10:16.199Z,95922.00
2023-01-30T07:15:46.100Z,95915.00
2023-01-30T07:21:13.910Z,95933.00
2023-01-30T07:26:42.932Z,95933.00
2023-01-30T07:32:18.577Z,95914.00
2023-01-30T07:37:48.814Z,95922.00
2023-01-30T07:43:16.926Z,95922.00
2023-01-30T07:48:46.420Z,95920.00
2023-01-30T07:54:14.377Z,95909.00
2023-01-30T07:59:42.977Z,95885.00
2023-01-30T08:05:10.809Z,95871.00
2023-01-30T08:10:38.591Z,95869.00
2023-01-30T08:16:08.312Z,95879.00
2023-01-30T08:21:37.343Z,95884.00
2023-01-30T08:27:05.373Z,95880.00
2023-01-30T08:32:33.530Z,95879.00
2023-01-30T08:38:03.442Z,95877.00
2023-01-30T08:43:31.322Z,95856.00
2023-01-30T08:49:02.709Z,95862.00
2023-01-30T08:54:33.290Z,95848.00
2023-01-30T09:00:01.756Z,95844.00
2023-01-30T09:05:30.131Z,95843.00
2023-01-30T09:11:04.061Z,95827.00
2023-01-30T09:16:31.954Z,95845.00
2023-01-30T09:21:59.840Z,95830.00
2023-01-30T09:27:27.744Z,95823.00
2023-01-30T09:32:55.649Z,95837.00
2023-01-30T09:38:23.632Z,95863.00
2023-01-30T09:44:44.158Z,95835.00
2023-01-30T09:50:35.663Z,95834.00
2023-01-30T09:56:04.473Z,95816.00
2023-01-30T10:02:18.863Z,95814.00
2023-01-30T10:08:20.070Z,95809.00
2023-01-30T10:14:15.768Z,95812.00
2023-01-30T10:20:32.709Z,95822.00
2023-01-30T10:26:14.850Z,95800.00
2023-01-30T10:31:46.815Z,95764.00
2023-01-30T10:37:35.953Z,95749.00
2023-01-30T10:43:30.055Z,95746.00
2023-01-30T10:49:13.878Z,95765.00
2023-01-30T10:55:04.369Z,95760.00
2023-01-30T11:01:14.971Z,95774.00
2023-01-30T11:06:43.196Z,95769.00
2023-01-30T11:12:12.238Z,95743.00
2023-01-30T11:17:45.381Z,95716.00
2023-01-30T11:23:41.413Z,95719.00
2023-01-30T11:29:34.472Z,95700.00
2023-01-30T11:35:28.939Z,95671.00
2023-01-30T11:41:21.623Z,95682.00
2023-01-30T11:46:50.076Z,95669.00
2023-01-30T11:52:27.652Z,95668.00
2023-01-30T11:57:59.437Z,95656.00
2023-01-30T12:03:30.511Z,95670.00
2023-01-30T12:08:59.352Z,95670.00
2023-01-30T12:14:39.320Z,95658.00
2023-01-30T12:20:46.404Z,95642.00
2023-01-30T12:26:18.934Z,95621.00
2023-01-30T12:32:15.417Z,95628.00
2023-01-30T12:38:06.772Z,95623.00
2023-01-30T12:44:14.961Z,95604.00
2023-01-30T12:50:02.791Z,95615.00
2023-01-30T12:55:43.995Z,95619.00
2023-01-30T13:02:42.365Z,95609.00
2023-01-30T13:08:54.285Z,95616.00
2023-01-30T13:14:53.561Z,95627.00
2023-01-30T13:20:50.420Z,95633.00
2023-01-30T13:26:24.504Z,95624.00
2023-01-30T13:31:59.445Z,95644.00
2023-01-30T13:37:28.740Z,95653.00
2023-01-30T13:43:27.268Z,95652.00
2023-01-30T13:49:25.413Z,95666.00
2023-01-30T13:55:22.349Z,95666.00
2023-01-30T14:00:56.704Z,95656.00
2023-01-30T14:06:36.488Z,95672.00
2023-01-30T14:12:06.940Z,95654.00
2023-01-30T14:17:34.859Z,95672.00
2023-01-30T14:23:25.200Z,95672.00
2023-01-30T14:28:53.637Z,95683.00
2023-01-30T14:35:00.964Z,95695.00
2023-01-30T14:40:32.427Z,95709.00
2023-01-30T14:46:22.513Z,95717.00
2023-01-30T14:51:51.146Z,95731.00
2023-01-30T14:57:24.627Z,95720.00
2023-01-30T15:03:02.423Z,95742.00
2023-01-30T15:08:30.328Z,95754.00
2023-01-30T15:14:18.502Z,95761.00
2023-01-30T15:20:38.606Z,95775.00
2023-01-30T15:26:25.150Z,95776.00
2023-01-30T15:32:16.319Z,95779.00
2023-01-30T15:37:57.834Z,95789.00
2023-01-30T15:44:12.189Z,95793.00
2023-01-30T15:49:55.153Z,95808.00
2023-01-30T15:55:36.968Z,95799.00
2023-01-30T16:01:05.191Z,95846.00
2023-01-30T16:06:36.284Z,95858.00
2023-01-30T16:12:04.299Z,95885.00
2023-01-30T16:17:34.317Z,95895.00
2023-01-30T16:23:02.152Z,95876.00
2023-01-30T16:28:31.947Z,95893.00
2023-01-30T16:34:01.291Z,95891.00
2023-01-30T16:39:36.341Z,95909.00
2023-01-30T16:45:13.511Z,95910.00
2023-01-30T16:50:41.450Z,95901.00
2023-01-30T16:56:17.331Z,95907.00
2023-01-30T17:01:46.987Z,95923.00
2023-01-30T17:07:35.210Z,95925.00
2023-01-30T17:13:04.330Z,95951.00
2023-01-30T17:18:32.241Z,95974.00
2023-01-30T17:24:04.104Z,95985.00
2023-01-30T17:29:42.299Z,95979.00
2023-01-30T17:35:12.847Z,95984.00
2023-01-30T17:40:42.955Z,95985.00
2023-01-30T17:46:13.395Z,95981.00
2023-01-30T17:51:41.997Z,95999.00
2023-01-30T17:57:15.908Z,95993.00
2023-01-30T18:02:44.759Z,95985.00
2023-01-30T18:08:14.237Z,96003.00
2023-01-30T18:13:48.223Z,96006.00
2023-01-30T18:19:24.323Z,96004.00
2023-01-30T18:24:57.716Z,96034.00
2023-01-30T18:30:26.825Z,96049.00
2023-01-30T18:35:54.902Z,96042.00
2023-01-30T18:41:25.050Z,96051.00
2023-01-30T18:46:53.971Z,96059.00
2023-01-30T18:52:22.206Z,96044.00
2023-01-30T18:57:50.204Z,96067.00
2023-01-30T19:03:18.282Z,96086.00
2023-01-30T19:08:50.267Z,96084.00
2023-01-30T19:14:21.360Z,96082.00
2023-01-30T19:19:50.620Z,96079.00
2023-01-30T19:25:18.771Z,96088.00
2023-01-30T19:30:47.944Z,96104.00
2023-01-30T19:36:21.671Z,96120.00
2023-01-30T19:41:49.677Z,96117.00
2023-01-30T19:47:21.812Z,96112.00
2023-01-30T19:52:53.159Z,96123.00
2023-01-30T19:58:21.172Z,96122.00
2023-01-30T20:03:49.603Z,96136.00
2023-01-30T20:09:18.012Z,96119.00
2023-01-30T20:14:45.822Z,96121.00
2023-01-30T20:20:14.040Z,96122.00
2023-01-30T20:25:43.465Z,96122.00
2023-01-30T20:31:18.683Z,96120.00
2023-01-30T20:36:46.849Z,96133.00
2023-01-30T20:42:17.469Z,96129.00
2023-01-30T20:47:45.732Z,96129.00
2023-01-30T20:53:14.787Z,96113.00
2023-01-30T20:58:42.829Z,96149.00
2023-01-30T21:04:14.247Z,96141.00
2023-01-30T21:09:43.435Z,96131.00
2023-01-30T21:15:13.138Z,96135.00
2023-01-30T21:20:40.975Z,96141.00
2023-01-30T21:26:11.945Z,96141.00
2023-01-30T21:31:44.559Z,96149.00
2023-01-30T21:37:30.874Z,96144.00
2023-01-30T21:43:16.713Z,96145.00
2023-01-30T21:48:45.797Z,96160.00
2023-01-30T21:54:14.905Z,96168.00
2023-01-30T21:59:42.698Z,96178.00
2023-01-30T22:05:11.116Z,96175.00
2023-01-30T22:10:38.881Z,96160.00
2023-01-30T22:16:13.482Z,96193.00
2023-01-30T22:21:44.020Z,96208.00
2023-01-30T22:27:12.342Z,96207.00
2023-01-30T22:32:41.147Z,96203.00
2023-01-30T22:38:08.884Z,96191.00
2023-01-30T22:43:37.656Z,96188.00
2023-01-30T22:49:08.820Z,96198.00
2023-01-30T22:54:37.177Z,96198.00
2023-01-30T23:00:06.402Z,96216.00
2023-01-30T23:05:34.170Z,96214.00
2023-01-30T23:11:20.560Z,96212.00
2023-01-30T23:16:48.382Z,96239.00
2023-01-30T23:22:16.294Z,96230.00
2023-01-30T23:27:46.407Z,96205.00
2023-01-30T23:33:14.369Z,96228.00
2023-01-30T23:38:42.236Z,96215.00
2023-01-30T23:44:12.954Z,96222.00
2023-01-30T23:49:40.765Z,96246.00
2023-01-30T23:55:09.330Z,96242.00
